Terminal Aerodrome Forecast
Issued by NWS

Home | Current Version | Previous Version | Text Only | Print | Product List | Glossary On
Versions: 1 2 3 4 5 6 7 8 9 10 11 12 13 14 15
000
FTUS41 KPHI 250522
TAFPNE
TAF
KPNE 250522Z 2506/2606 21005KT P6SM SCT100 BKN250 WS020/24038KT
     FM250900 24008KT P6SM BKN045
     FM252000 32009KT P6SM OVC035 PROB30 2521/2524 4SM -SHRA OVC020
     FM260000 05008KT 4SM -RA BR OVC012
     FM260200 06012KT 2SM -RA BR OVC005=

USA.gov is the U.S. government's official web portal to all federal, state and local government web resources and services.